createdAt,value
2022-10-10T00:01:31.386Z,34.60
2022-10-10T00:04:05.972Z,34.27
2022-10-10T00:06:37.610Z,34.30
2022-10-10T00:09:09.875Z,37.37
2022-10-10T00:11:41.787Z,35.27
2022-10-10T00:14:13.276Z,35.10
2022-10-10T00:16:45.276Z,35.30
2022-10-10T00:19:18.769Z,34.67
2022-10-10T00:21:50.016Z,36.03
2022-10-10T00:24:21.097Z,34.33
2022-10-10T00:26:52.564Z,34.93
2022-10-10T00:29:23.849Z,34.70
2022-10-10T00:31:55.145Z,34.43
2022-10-10T00:34:28.187Z,34.30
2022-10-10T00:36:59.613Z,34.87
2022-10-10T00:39:30.742Z,35.57
2022-10-10T00:42:02.922Z,34.97
2022-10-10T00:44:34.018Z,35.97
2022-10-10T00:47:05.077Z,37.47
2022-10-10T00:49:42.521Z,37.20
2022-10-10T00:52:14.517Z,36.90
2022-10-10T00:54:45.246Z,37.00
2022-10-10T00:57:17.858Z,35.23
2022-10-10T00:59:50.322Z,36.73
2022-10-10T01:02:20.884Z,35.57
2022-10-10T01:04:54.084Z,34.60
2022-10-10T01:07:29.070Z,34.47
2022-10-10T01:10:02.854Z,35.10
2022-10-10T01:12:44.806Z,35.03
2022-10-10T01:15:24.693Z,34.77
2022-10-10T01:18:00.681Z,34.07
2022-10-10T01:20:53.219Z,35.63
2022-10-10T01:23:55.440Z,35.30
2022-10-10T01:26:51.749Z,36.87
2022-10-10T01:29:32.735Z,35.53
2022-10-10T01:32:08.177Z,35.37
2022-10-10T01:34:49.165Z,34.27
2022-10-10T01:37:23.907Z,36.13
2022-10-10T01:40:04.009Z,35.40
2022-10-10T01:42:40.572Z,35.93
2022-10-10T01:45:15.350Z,35.00
2022-10-10T01:47:48.338Z,35.13
2022-10-10T01:50:24.629Z,34.27
2022-10-10T01:53:05.926Z,34.77
2022-10-10T01:55:53.389Z,33.67
2022-10-10T01:58:51.922Z,33.30
2022-10-10T02:01:29.415Z,32.47
2022-10-10T02:04:10.645Z,32.53
2022-10-10T02:06:47.571Z,32.60
2022-10-10T02:09:26.477Z,32.60
2022-10-10T02:11:59.391Z,33.77
2022-10-10T02:14:35.073Z,34.03
2022-10-10T02:17:19.975Z,32.87
2022-10-10T02:19:54.297Z,32.60
2022-10-10T02:22:28.690Z,32.97
2022-10-10T02:25:01.459Z,32.63
2022-10-10T02:27:39.435Z,31.93
2022-10-10T02:30:12.104Z,32.60
2022-10-10T02:32:49.782Z,32.37
2022-10-10T02:35:23.510Z,33.10
2022-10-10T02:37:57.044Z,33.20
2022-10-10T02:40:32.194Z,33.10
2022-10-10T02:43:05.473Z,33.50
2022-10-10T02:45:37.148Z,35.50
2022-10-10T02:48:10.837Z,34.37
2022-10-10T02:50:41.809Z,33.37
2022-10-10T02:53:13.236Z,34.70
2022-10-10T02:55:44.775Z,36.20
2022-10-10T02:58:16.031Z,34.93
2022-10-10T03:00:47.061Z,37.80
2022-10-10T03:03:20.127Z,35.33
2022-10-10T03:05:52.705Z,36.33
2022-10-10T03:08:23.792Z,37.30
2022-10-10T03:10:59.715Z,36.07
2022-10-10T03:13:30.824Z,37.60
2022-10-10T03:16:02.023Z,36.47
2022-10-10T03:18:35.825Z,37.77
2022-10-10T03:21:09.385Z,37.73
2022-10-10T03:23:40.606Z,39.10
2022-10-10T03:26:14.548Z,39.93
2022-10-10T03:28:45.821Z,41.23
2022-10-10T03:31:17.173Z,43.03
2022-10-10T03:33:50.918Z,43.77
2022-10-10T03:36:22.522Z,45.57
2022-10-10T03:38:53.621Z,45.37
2022-10-10T03:41:25.092Z,44.63
2022-10-10T03:43:56.190Z,44.70
2022-10-10T03:46:28.578Z,45.80
2022-10-10T03:49:02.928Z,46.33
2022-10-10T03:51:35.908Z,46.87
2022-10-10T03:54:07.272Z,46.03
2022-10-10T03:56:38.813Z,47.67
2022-10-10T03:59:10.465Z,47.27
2022-10-10T04:01:42.385Z,46.97
2022-10-10T04:04:18.518Z,48.97
2022-10-10T04:06:49.978Z,47.73
2022-10-10T04:09:21.709Z,47.87
2022-10-10T04:11:52.753Z,48.30
2022-10-10T04:14:24.040Z,48.27
2022-10-10T04:16:58.644Z,46.77
2022-10-10T04:19:34.197Z,48.00
2022-10-10T04:22:11.224Z,46.23
2022-10-10T04:24:42.287Z,47.30
2022-10-10T04:27:13.717Z,45.00
2022-10-10T04:29:44.810Z,46.57
2022-10-10T04:32:15.986Z,46.13
2022-10-10T04:34:49.040Z,44.80
2022-10-10T04:37:20.510Z,45.50
2022-10-10T04:39:51.758Z,46.03
2022-10-10T04:42:23.350Z,44.83
2022-10-10T04:44:54.393Z,45.47
2022-10-10T04:47:25.896Z,45.00
2022-10-10T04:49:59.946Z,44.57
2022-10-10T04:52:30.823Z,46.17
2022-10-10T04:55:02.164Z,45.47
2022-10-10T04:57:33.786Z,43.60
2022-10-10T05:00:05.377Z,44.70
2022-10-10T05:02:36.849Z,46.13
2022-10-10T05:05:11.543Z,43.93
2022-10-10T05:07:42.564Z,44.60
2022-10-10T05:10:13.968Z,44.93
2022-10-10T05:12:45.021Z,47.47
2022-10-10T05:15:16.045Z,46.90
2022-10-10T05:17:47.144Z,46.43
2022-10-10T05:20:20.791Z,47.97
2022-10-10T05:22:52.386Z,45.63
2022-10-10T05:25:23.590Z,47.07
2022-10-10T05:27:55.695Z,46.70
2022-10-10T05:30:26.881Z,45.40
2022-10-10T05:32:59.147Z,46.07
2022-10-10T05:35:33.182Z,44.57
2022-10-10T05:38:04.798Z,43.33
2022-10-10T05:40:35.884Z,45.17
2022-10-10T05:43:07.480Z,43.13
2022-10-10T05:45:38.676Z,44.37
2022-10-10T05:48:11.993Z,44.40
2022-10-10T05:50:51.187Z,42.43
2022-10-10T05:53:22.488Z,43.60
2022-10-10T05:55:53.897Z,41.63
2022-10-10T05:58:27.079Z,41.63
2022-10-10T06:00:58.126Z,42.97
2022-10-10T06:03:29.715Z,43.30
2022-10-10T06:06:02.865Z,41.47
2022-10-10T06:08:34.513Z,41.23
2022-10-10T06:11:10.501Z,42.43
2022-10-10T06:13:42.884Z,42.53
2022-10-10T06:16:14.804Z,43.40
2022-10-10T06:18:45.853Z,42.97
2022-10-10T06:21:20.417Z,41.60
2022-10-10T06:23:52.295Z,42.37
2022-10-10T06:26:23.715Z,42.63
2022-10-10T06:28:55.187Z,42.93
2022-10-10T06:31:26.990Z,42.43
2022-10-10T06:33:58.658Z,42.80
2022-10-10T06:36:32.340Z,42.40
2022-10-10T06:39:04.062Z,41.17
2022-10-10T06:41:35.832Z,42.30
2022-10-10T06:44:07.991Z,42.40
2022-10-10T06:46:39.952Z,42.67
2022-10-10T06:49:11.988Z,43.33
2022-10-10T06:51:44.917Z,44.23
2022-10-10T06:54:16.066Z,43.20
2022-10-10T06:56:47.332Z,42.77
2022-10-10T06:59:18.830Z,43.90
2022-10-10T07:01:50.045Z,44.63
2022-10-10T07:04:21.132Z,44.70
2022-10-10T07:06:54.282Z,44.97
2022-10-10T07:09:25.352Z,44.97
2022-10-10T07:11:58.863Z,43.83
2022-10-10T07:14:30.085Z,45.30
2022-10-10T07:17:01.364Z,44.93
2022-10-10T07:19:32.250Z,43.93
2022-10-10T07:22:06.948Z,45.43
2022-10-10T07:24:39.543Z,44.63
2022-10-10T07:27:11.892Z,46.13
2022-10-10T07:29:42.872Z,46.43
2022-10-10T07:32:15.655Z,46.43
2022-10-10T07:34:46.692Z,46.93
2022-10-10T07:37:20.452Z,47.37
2022-10-10T07:39:51.509Z,47.07
2022-10-10T07:42:22.303Z,48.33
2022-10-10T07:44:53.343Z,47.57
2022-10-10T07:47:24.477Z,47.73
2022-10-10T07:49:56.353Z,49.90
2022-10-10T07:52:29.322Z,48.80
2022-10-10T07:55:00.434Z,47.23
2022-10-10T07:57:35.849Z,47.50
2022-10-10T08:00:08.966Z,47.87
2022-10-10T08:02:40.246Z,47.73
2022-10-10T08:05:13.606Z,47.97
2022-10-10T08:07:47.332Z,46.67
2022-10-10T08:10:17.886Z,46.70
2022-10-10T08:12:48.933Z,47.47
2022-10-10T08:15:20.103Z,46.93
2022-10-10T08:17:51.863Z,46.63
2022-10-10T08:20:23.962Z,46.00
2022-10-10T08:22:57.379Z,47.17
2022-10-10T08:25:28.805Z,48.07
2022-10-10T08:27:59.804Z,46.13
2022-10-10T08:30:30.926Z,45.90
2022-10-10T08:33:02.252Z,46.70
2022-10-10T08:35:33.446Z,47.93
2022-10-10T08:38:06.513Z,47.50
2022-10-10T08:40:38.310Z,48.93
2022-10-10T08:43:12.391Z,48.37
2022-10-10T08:45:45.087Z,50.03
2022-10-10T08:48:19.628Z,49.40
2022-10-10T08:50:55.693Z,48.33
2022-10-10T08:53:35.719Z,51.93
2022-10-10T08:56:10.212Z,50.23
2022-10-10T08:58:46.938Z,50.00
2022-10-10T09:01:23.856Z,50.57
2022-10-10T09:03:59.550Z,50.63
2022-10-10T09:06:58.422Z,50.37
2022-10-10T09:09:40.880Z,53.03
2022-10-10T09:12:27.540Z,51.03
2022-10-10T09:15:05.692Z,52.30
2022-10-10T09:17:44.469Z,53.43
2022-10-10T09:20:30.325Z,53.37
2022-10-10T09:23:05.345Z,54.13
2022-10-10T09:25:46.318Z,53.33
2022-10-10T09:28:23.522Z,53.87
2022-10-10T09:30:58.984Z,52.83
2022-10-10T09:33:38.965Z,54.37
2022-10-10T09:36:16.320Z,55.87
2022-10-10T09:38:52.097Z,55.10
2022-10-10T09:41:34.702Z,55.40
2022-10-10T09:44:10.435Z,53.10
2022-10-10T09:46:41.900Z,54.90
2022-10-10T09:49:17.050Z,54.67
2022-10-10T09:51:49.002Z,51.60
2022-10-10T09:54:22.856Z,51.93
2022-10-10T09:56:59.094Z,53.23
2022-10-10T09:59:51.272Z,54.47
2022-10-10T10:02:24.593Z,52.27
2022-10-10T10:04:57.668Z,53.77
2022-10-10T10:07:32.170Z,51.90
2022-10-10T10:10:05.628Z,53.70
2022-10-10T10:12:45.132Z,53.07
2022-10-10T10:15:23.209Z,55.23
2022-10-10T10:18:13.664Z,55.23
2022-10-10T10:20:46.690Z,54.23
2022-10-10T10:23:28.189Z,54.40
2022-10-10T10:26:03.325Z,55.83
2022-10-10T10:28:44.470Z,55.27
2022-10-10T10:31:24.672Z,55.77
2022-10-10T10:34:06.983Z,56.73
2022-10-10T10:36:48.981Z,57.00
2022-10-10T10:39:33.674Z,57.47
2022-10-10T10:42:13.179Z,57.23
2022-10-10T10:44:52.997Z,57.63
2022-10-10T10:47:41.133Z,58.70
2022-10-10T10:50:29.516Z,57.47
2022-10-10T10:53:11.336Z,56.37
2022-10-10T10:55:49.368Z,56.63
2022-10-10T10:59:35.746Z,55.83
2022-10-10T11:02:03.427Z,56.13
2022-10-10T11:05:24.798Z,56.37
2022-10-10T11:08:03.151Z,56.13
2022-10-10T11:10:40.097Z,55.93
2022-10-10T11:13:17.408Z,54.33
2022-10-10T11:16:05.973Z,56.67
2022-10-10T11:18:47.466Z,57.03
2022-10-10T11:21:24.394Z,56.97
2022-10-10T11:24:01.208Z,54.13
2022-10-10T11:26:36.185Z,55.30
2022-10-10T11:29:13.606Z,55.90
2022-10-10T11:31:50.853Z,57.20
2022-10-10T11:34:28.194Z,57.43
2022-10-10T11:37:05.070Z,57.57
2022-10-10T11:39:43.113Z,55.33
2022-10-10T11:42:22.345Z,56.53
2022-10-10T11:44:59.172Z,55.43
2022-10-10T11:47:35.373Z,54.37
2022-10-10T11:50:19.735Z,55.07
2022-10-10T11:52:58.704Z,53.57
2022-10-10T11:55:36.517Z,55.73
2022-10-10T11:58:32.154Z,55.13
2022-10-10T12:01:09.786Z,54.83
2022-10-10T12:03:40.979Z,56.93
2022-10-10T12:06:23.047Z,55.87
2022-10-10T12:09:00.548Z,56.43
2022-10-10T12:11:38.081Z,54.93
2022-10-10T12:14:13.199Z,57.17
2022-10-10T12:16:44.577Z,54.67
2022-10-10T12:19:22.984Z,55.00
2022-10-10T12:22:05.804Z,55.73
2022-10-10T12:24:42.756Z,54.60
2022-10-10T12:27:49.223Z,56.13
2022-10-10T12:30:29.040Z,54.23
2022-10-10T12:33:00.501Z,54.10
2022-10-10T12:35:42.898Z,53.70
2022-10-10T12:38:22.871Z,55.17
2022-10-10T12:41:20.828Z,54.87
2022-10-10T12:44:21.971Z,53.57
2022-10-10T12:47:59.793Z,53.43
2022-10-10T12:50:30.055Z,54.73
2022-10-10T12:53:03.305Z,54.97
2022-10-10T12:55:46.958Z,54.20
2022-10-10T12:58:26.978Z,52.70
2022-10-10T13:01:01.298Z,54.20
2022-10-10T13:03:37.694Z,52.97
2022-10-10T13:06:17.113Z,52.33
2022-10-10T13:08:49.107Z,52.80
2022-10-10T13:11:22.064Z,52.60
2022-10-10T13:13:54.448Z,52.90
2022-10-10T13:16:31.345Z,52.20
2022-10-10T13:19:05.176Z,52.93
2022-10-10T13:21:38.177Z,52.80
2022-10-10T13:24:18.097Z,53.00
2022-10-10T13:26:53.306Z,51.63
2022-10-10T13:29:28.609Z,52.70
2022-10-10T13:32:03.473Z,52.80
2022-10-10T13:34:36.704Z,52.27
2022-10-10T13:37:09.226Z,52.87
2022-10-10T13:39:42.802Z,54.23
2022-10-10T13:42:30.129Z,55.03
2022-10-10T13:45:04.240Z,53.50
2022-10-10T13:47:56.563Z,51.47
2022-10-10T13:50:33.239Z,53.20
2022-10-10T13:53:26.655Z,52.00
2022-10-10T13:56:05.107Z,53.37
2022-10-10T13:58:43.854Z,51.20
2022-10-10T14:01:38.087Z,50.90
2022-10-10T14:04:29.353Z,50.97
2022-10-10T14:07:04.876Z,50.57
2022-10-10T14:09:40.005Z,53.13
2022-10-10T14:12:18.607Z,54.23
2022-10-10T14:14:52.971Z,56.73
2022-10-10T14:17:24.164Z,53.87
2022-10-10T14:19:56.056Z,53.57
2022-10-10T14:22:28.226Z,54.50
2022-10-10T14:25:00.720Z,55.13
2022-10-10T14:27:36.850Z,54.30
2022-10-10T14:30:16.497Z,54.23
2022-10-10T14:32:47.028Z,52.63
2022-10-10T14:35:18.537Z,50.73
2022-10-10T14:37:50.072Z,51.17
2022-10-10T14:40:23.760Z,51.67
2022-10-10T14:42:54.809Z,52.33
2022-10-10T14:45:28.366Z,51.80
2022-10-10T14:47:59.948Z,51.57
2022-10-10T14:50:34.691Z,50.80
2022-10-10T14:53:06.271Z,51.70
2022-10-10T14:55:37.842Z,50.40
2022-10-10T14:58:08.854Z,50.90
2022-10-10T15:00:42.131Z,52.40
2022-10-10T15:03:13.275Z,52.50
2022-10-10T15:05:44.929Z,52.40
2022-10-10T15:08:17.809Z,52.40
2022-10-10T15:10:49.605Z,54.07
2022-10-10T15:13:21.633Z,53.27
2022-10-10T15:15:54.471Z,54.80
2022-10-10T15:18:52.831Z,52.77
2022-10-10T15:21:17.571Z,52.33
2022-10-10T15:23:49.045Z,51.43
2022-10-10T15:26:20.078Z,53.23
2022-10-10T15:28:52.150Z,51.73
2022-10-10T15:31:31.193Z,53.30
2022-10-10T15:34:02.848Z,50.77
2022-10-10T15:36:34.099Z,51.87
2022-10-10T15:39:05.251Z,52.70
2022-10-10T15:41:36.307Z,50.53
2022-10-10T15:44:07.750Z,53.27
2022-10-10T15:46:40.725Z,53.20
2022-10-10T15:49:11.850Z,52.63
2022-10-10T15:51:47.544Z,52.67
2022-10-10T15:54:19.984Z,52.80
2022-10-10T15:56:51.981Z,51.20
2022-10-10T15:59:23.250Z,52.93
2022-10-10T16:01:56.742Z,52.27
2022-10-10T16:04:27.840Z,52.23
2022-10-10T16:07:24.141Z,52.77
2022-10-10T16:09:50.072Z,52.40
2022-10-10T16:12:21.125Z,51.83
2022-10-10T16:14:52.280Z,53.53
2022-10-10T16:17:26.962Z,49.83
2022-10-10T16:19:58.433Z,51.20
2022-10-10T16:22:29.622Z,49.23
2022-10-10T16:27:52.484Z,47.80
2022-10-10T16:30:23.764Z,47.77
2022-10-10T16:32:57.412Z,48.93
2022-10-10T16:35:29.146Z,45.70
2022-10-10T16:38:01.453Z,43.87
2022-10-10T16:40:33.659Z,42.80
2022-10-10T16:43:04.869Z,43.33
2022-10-10T16:45:36.085Z,42.20
2022-10-10T16:48:10.153Z,42.57
2022-10-10T16:50:43.023Z,42.60
2022-10-10T16:53:14.418Z,40.10
2022-10-10T16:55:46.982Z,39.47
2022-10-10T16:58:18.567Z,40.13
2022-10-10T17:00:50.610Z,37.67
2022-10-10T17:03:25.892Z,37.40
2022-10-10T17:06:05.919Z,36.93
2022-10-10T17:08:37.731Z,35.23
2022-10-10T17:11:09.523Z,36.73
2022-10-10T17:13:41.014Z,35.80
2022-10-10T17:16:53.352Z,35.70
2022-10-10T17:19:07.963Z,34.97
2022-10-10T17:21:39.007Z,35.47
2022-10-10T17:24:10.825Z,35.73
2022-10-10T17:26:42.506Z,35.77
2022-10-10T17:29:14.616Z,33.83
2022-10-10T17:31:45.752Z,33.07
2022-10-10T17:34:19.395Z,33.90
2022-10-10T17:36:50.328Z,34.13
2022-10-10T17:39:21.470Z,32.07
2022-10-10T17:41:53.273Z,32.77
2022-10-10T17:44:25.766Z,33.63
2022-10-10T17:46:56.792Z,33.23
2022-10-10T17:49:30.743Z,32.93
2022-10-10T17:52:01.744Z,31.30
2022-10-10T17:54:32.754Z,31.17
2022-10-10T17:57:04.537Z,31.63
2022-10-10T17:59:35.484Z,32.40
2022-10-10T18:02:07.036Z,32.13
2022-10-10T18:04:42.233Z,32.03
2022-10-10T18:07:13.862Z,30.97
2022-10-10T18:09:45.061Z,30.73
2022-10-10T18:12:17.160Z,32.40
2022-10-10T18:14:48.423Z,31.40
2022-10-10T18:17:19.897Z,30.73
2022-10-10T18:19:52.968Z,34.00
2022-10-10T18:22:26.182Z,33.40
2022-10-10T18:24:57.277Z,34.00
2022-10-10T18:27:31.245Z,34.93
2022-10-10T18:30:02.922Z,34.00
2022-10-10T18:32:33.885Z,32.90
2022-10-10T18:35:07.269Z,33.40
2022-10-10T18:37:39.689Z,33.70
2022-10-10T18:40:12.130Z,33.70
2022-10-10T18:42:46.347Z,33.63
2022-10-10T18:45:17.398Z,31.83
2022-10-10T18:47:48.829Z,31.90
2022-10-10T18:50:22.495Z,31.43
2022-10-10T18:52:55.061Z,32.90
2022-10-10T18:55:31.079Z,31.87
2022-10-10T18:58:03.620Z,31.73
2022-10-10T19:00:35.184Z,31.67
2022-10-10T19:03:07.103Z,31.10
2022-10-10T19:05:43.247Z,31.10
2022-10-10T19:08:14.999Z,32.20
2022-10-10T19:10:48.499Z,32.03
2022-10-10T19:13:20.390Z,32.23
2022-10-10T19:15:52.632Z,31.83
2022-10-10T19:18:24.410Z,31.70
2022-10-10T19:21:02.729Z,33.00
2022-10-10T19:23:34.384Z,33.20
2022-10-10T19:26:06.729Z,35.33
2022-10-10T19:28:38.838Z,35.27
2022-10-10T19:31:11.999Z,34.67
2022-10-10T19:33:44.098Z,34.13
2022-10-10T19:36:17.512Z,34.97
2022-10-10T19:38:49.332Z,35.27
2022-10-10T19:41:21.579Z,35.10
2022-10-10T19:43:54.878Z,36.07
2022-10-10T19:46:27.893Z,33.70
2022-10-10T19:49:00.713Z,32.43
2022-10-10T19:51:34.927Z,34.80
2022-10-10T19:54:06.123Z,32.57
2022-10-10T19:56:37.660Z,32.80
2022-10-10T19:59:09.240Z,33.60
2022-10-10T20:01:40.803Z,31.23
2022-10-10T20:04:12.488Z,35.20
2022-10-10T20:06:45.448Z,33.60
2022-10-10T20:09:16.301Z,32.67
2022-10-10T20:11:47.372Z,31.80
2022-10-10T20:14:19.095Z,32.43
2022-10-10T20:16:50.790Z,32.60
2022-10-10T20:19:22.028Z,32.43
2022-10-10T20:21:55.897Z,31.20
2022-10-10T20:24:27.131Z,32.23
2022-10-10T20:26:58.746Z,30.67
2022-10-10T20:29:31.117Z,30.90
2022-10-10T20:32:02.757Z,31.20
2022-10-10T20:34:34.017Z,30.43
2022-10-10T20:37:07.582Z,29.67
2022-10-10T20:39:38.479Z,29.40
2022-10-10T20:42:09.555Z,30.67
2022-10-10T20:44:40.752Z,30.03
2022-10-10T20:47:12.001Z,32.10
2022-10-10T20:49:43.022Z,31.13
2022-10-10T20:52:20.398Z,31.93
2022-10-10T20:54:52.339Z,31.90
2022-10-10T20:57:23.400Z,31.50
2022-10-10T20:59:54.631Z,29.93
2022-10-10T21:02:25.884Z,29.40
2022-10-10T21:04:57.356Z,26.30
2022-10-10T21:07:31.874Z,24.53
2022-10-10T21:10:03.028Z,24.93
2022-10-10T21:12:35.250Z,24.87
2022-10-10T21:15:06.201Z,23.87
2022-10-10T21:17:38.013Z,23.97
2022-10-10T21:20:10.279Z,22.00
2022-10-10T21:22:44.228Z,22.13
2022-10-10T21:25:15.657Z,21.00
2022-10-10T21:27:46.689Z,19.03
2022-10-10T21:30:18.025Z,17.83
2022-10-10T21:32:49.121Z,17.03
2022-10-10T21:35:20.254Z,15.07
2022-10-10T21:37:53.296Z,16.20
2022-10-10T21:40:24.420Z,15.87
2022-10-10T21:42:55.564Z,16.27
2022-10-10T21:45:26.594Z,16.30
2022-10-10T21:47:57.477Z,16.73
2022-10-10T21:50:29.683Z,15.90
2022-10-10T21:53:02.949Z,16.67
2022-10-10T21:55:34.025Z,15.80
2022-10-10T21:58:04.538Z,16.77
2022-10-10T22:00:35.653Z,16.33
2022-10-10T22:03:06.857Z,16.13
2022-10-10T22:05:38.681Z,16.23
2022-10-10T22:08:11.848Z,15.47
2022-10-10T22:10:46.274Z,17.23
2022-10-10T22:13:17.388Z,16.43
2022-10-10T22:15:49.106Z,15.20
2022-10-10T22:18:21.089Z,15.43
2022-10-10T22:20:52.401Z,15.60
2022-10-10T22:23:26.422Z,16.37
2022-10-10T22:25:57.427Z,16.27
2022-10-10T22:28:28.749Z,16.03
2022-10-10T22:31:00.289Z,16.60
2022-10-10T22:33:31.344Z,14.73
2022-10-10T22:36:02.808Z,14.40
2022-10-10T22:38:36.476Z,13.60
2022-10-10T22:41:08.355Z,12.97
2022-10-10T22:43:39.785Z,12.17
2022-10-10T22:46:11.339Z,11.53
2022-10-10T22:48:42.442Z,10.83
2022-10-10T22:51:17.503Z,10.97
2022-10-10T22:53:52.160Z,10.77
2022-10-10T22:56:24.812Z,10.40
2022-10-10T22:58:56.184Z,9.70
2022-10-10T23:01:29.923Z,9.57
2022-10-10T23:04:04.368Z,8.90
2022-10-10T23:06:35.971Z,8.83
2022-10-10T23:09:09.254Z,8.00
2022-10-10T23:11:40.342Z,8.87
2022-10-10T23:14:13.364Z,8.27
2022-10-10T23:16:44.486Z,8.03
2022-10-10T23:19:15.562Z,8.00
2022-10-10T23:21:47.637Z,7.53
2022-10-10T23:24:21.287Z,7.53
2022-10-10T23:26:53.417Z,7.47
2022-10-10T23:29:24.442Z,8.83
2022-10-10T23:31:55.916Z,8.57
2022-10-10T23:34:27.016Z,8.60
2022-10-10T23:36:57.784Z,7.77
2022-10-10T23:39:31.000Z,8.40
2022-10-10T23:42:02.494Z,8.47
2022-10-10T23:44:33.372Z,8.87
2022-10-10T23:47:04.490Z,8.03
2022-10-10T23:49:36.122Z,8.07
2022-10-10T23:52:08.001Z,7.43
2022-10-10T23:54:42.157Z,6.93
2022-10-10T23:57:14.203Z,7.10
2022-10-10T23:59:46.260Z,7.03
